Time;durP1;ratioP1;P1;durP2;ratioP2;P2;SDS_P1;SDS_P2;PMS_P1;PMS_P2;Temp;Humidity;BMP_temperature;BMP_pressure;BME280_temperature;BME280_humidity;BME280_pressure;Samples;Min_cycle;Max_cycle;Signal;HPM_P1;HPM_P2
2023/06/28 00:00:18;;;;;;;7.20;5.00;;;;;;;10.44;75.07;97024.62;107864;1237;100050;-78
2023/06/28 00:03:09;;;;;;;9.70;4.80;;;;;;;10.40;75.22;97026.14;107876;1248;96064;-81
2023/06/28 00:05:35;;;;;;;8.10;5.10;;;;;;;10.36;75.37;97031.58;107665;1241;95915;-81
2023/06/28 00:08:02;;;;;;;6.70;4.90;;;;;;;10.33;75.49;97032.35;107938;1246;96263;-80
2023/06/28 00:10:28;;;;;;;7.80;5.40;;;;;;;10.31;75.62;97034.05;107887;1239;96632;-81
2023/06/28 00:12:56;;;;;;;8.40;5.00;;;;;;;10.31;75.66;97033.27;107912;1249;95847;-81
2023/06/28 00:15:22;;;;;;;8.70;4.90;;;;;;;10.25;75.79;97027.85;107888;1248;96737;-82
2023/06/28 00:17:48;;;;;;;8.30;4.10;;;;;;;10.20;75.83;97026.38;108016;1248;96332;-81
2023/06/28 00:20:15;;;;;;;8.00;4.20;;;;;;;10.17;75.94;97022.77;107992;1237;96771;-82
2023/06/28 00:22:41;;;;;;;7.70;5.00;;;;;;;10.19;76.23;97021.27;108079;1237;96159;-83
2023/06/28 00:25:08;;;;;;;7.90;5.00;;;;;;;10.18;76.11;97021.05;108044;1237;96424;-81
2023/06/28 00:27:35;;;;;;;11.40;5.30;;;;;;;10.10;76.17;97025.17;108047;1240;95786;-81
2023/06/28 00:30:01;;;;;;;10.20;4.20;;;;;;;10.07;76.24;97027.42;108035;1237;96108;-80
2023/06/28 00:32:29;;;;;;;12.60;5.00;;;;;;;9.97;76.06;97027.94;107978;1245;95799;-82
2023/06/28 00:34:56;;;;;;;10.00;5.00;;;;;;;9.92;76.40;97027.69;108115;1246;95840;-81
2023/06/28 00:37:22;;;;;;;10.30;4.90;;;;;;;9.96;76.75;97036.63;108102;1234;96743;-80
2023/06/28 00:39:48;;;;;;;9.40;4.60;;;;;;;10.02;76.95;97031.41;108020;1237;101672;-82
2023/06/28 00:42:15;;;;;;;12.00;4.60;;;;;;;10.07;76.93;97032.90;107938;1249;95832;-82
2023/06/28 00:44:41;;;;;;;7.30;4.90;;;;;;;10.04;77.04;97025.00;108040;1237;96396;-82
2023/06/28 00:47:08;;;;;;;9.40;5.40;;;;;;;10.06;77.23;97026.65;108001;1235;95914;-82
2023/06/28 00:49:38;;;;;;;9.90;4.80;;;;;;;10.13;77.28;97028.02;108025;1237;100322;-82
2023/06/28 00:52:06;;;;;;;8.10;4.70;;;;;;;10.20;77.36;97029.11;108018;1238;100912;-81
2023/06/28 00:54:33;;;;;;;20.00;4.80;;;;;;;10.23;77.33;97029.73;107460;1234;96441;-82
2023/06/28 00:56:59;;;;;;;7.30;4.80;;;;;;;10.21;77.43;97026.41;108023;1237;95996;-80
2023/06/28 00:59:27;;;;;;;9.80;4.60;;;;;;;10.18;77.40;97027.04;108013;1239;95848;-81
2023/06/28 01:01:54;;;;;;;11.30;5.10;;;;;;;10.16;77.48;97028.38;108014;1234;95888;-81
2023/06/28 01:04:21;;;;;;;5.60;4.40;;;;;;;10.20;77.61;97035.30;108019;1234;95804;-81
2023/06/28 01:06:53;;;;;;;6.50;4.50;;;;;;;10.23;77.67;97035.09;108057;1235;96075;-83
2023/06/28 01:09:21;;;;;;;7.80;4.50;;;;;;;10.23;77.59;97030.64;107456;1241;95825;-82
2023/06/28 01:11:50;;;;;;;9.70;4.20;;;;;;;10.19;77.67;97028.87;107468;1242;101538;-82
2023/06/28 01:14:17;;;;;;;9.10;4.60;;;;;;;10.19;77.91;97026.17;108089;1247;102006;-82
2023/06/28 01:16:49;;;;;;;6.40;4.00;;;;;;;10.22;78.04;97020.02;108013;1237;100609;-83
2023/06/28 01:19:16;;;;;;;11.90;4.50;;;;;;;10.26;78.10;97022.40;108086;1234;95901;-82
2023/06/28 01:21:45;;;;;;;5.60;4.00;;;;;;;10.32;78.17;97021.61;107938;1238;96769;-82
2023/06/28 01:24:13;;;;;;;9.60;4.50;;;;;;;10.35;78.25;97017.52;107552;1237;99829;-81
2023/06/28 01:26:40;;;;;;;7.80;4.70;;;;;;;10.38;78.29;97023.18;108033;1234;95980;-81
2023/06/28 01:29:07;;;;;;;6.90;4.40;;;;;;;10.43;78.38;97019.73;107929;1241;100791;-81
2023/06/28 01:31:34;;;;;;;6.80;4.20;;;;;;;10.46;78.53;97019.67;107414;1245;95977;-82
2023/06/28 01:34:00;;;;;;;8.10;4.10;;;;;;;10.50;78.66;97017.45;108005;1248;95844;-82
2023/06/28 01:36:27;;;;;;;8.60;4.20;;;;;;;10.52;78.65;97018.91;107948;1239;97139;-81
2023/06/28 01:38:55;;;;;;;8.20;4.30;;;;;;;10.55;78.67;97015.07;107737;1242;96096;-82
2023/06/28 01:41:23;;;;;;;6.00;3.90;;;;;;;10.57;78.73;97015.35;107968;1246;95895;-82
2023/06/28 01:43:50;;;;;;;5.00;3.50;;;;;;;10.58;78.77;97014.42;107913;1248;95756;-82
2023/06/28 01:46:16;;;;;;;8.10;3.40;;;;;;;10.57;78.78;97011.16;108046;1235;96078;-81
2023/06/28 01:48:43;;;;;;;6.80;3.60;;;;;;;10.58;78.81;97010.28;107956;1235;95821;-80
2023/06/28 01:51:09;;;;;;;6.70;3.80;;;;;;;10.60;78.81;97006.90;107476;1244;96766;-82
2023/06/28 01:53:36;;;;;;;5.80;3.80;;;;;;;10.60;78.86;97007.69;108048;1236;95888;-81
2023/06/28 01:56:02;;;;;;;8.60;3.70;;;;;;;10.61;78.89;97005.73;108070;1234;99548;-81
2023/06/28 01:58:29;;;;;;;8.20;3.60;;;;;;;10.62;78.93;97004.25;108011;1239;96762;-82
2023/06/28 02:00:55;;;;;;;9.90;3.40;;;;;;;10.61;78.91;97002.12;108139;1239;95807;-83
2023/06/28 02:03:21;;;;;;;7.70;2.80;;;;;;;10.57;79.04;97002.35;107995;1238;96893;-80
2023/06/28 02:05:48;;;;;;;4.30;3.40;;;;;;;10.54;79.05;97001.33;107989;1238;99789;-81
2023/06/28 02:08:14;;;;;;;4.80;3.10;;;;;;;10.51;79.13;97002.48;107987;1238;95962;-82
2023/06/28 02:10:40;;;;;;;5.70;3.40;;;;;;;10.48;79.23;97000.52;107993;1234;96740;-81
2023/06/28 02:13:07;;;;;;;8.30;3.60;;;;;;;10.52;79.20;97002.73;108119;1247;95818;-81
2023/06/28 02:15:35;;;;;;;6.40;3.80;;;;;;;10.56;79.41;96998.05;108007;1234;101452;-83
2023/06/28 02:18:01;;;;;;;7.40;3.30;;;;;;;10.57;79.48;96999.70;107518;1245;101740;-82
2023/06/28 02:20:28;;;;;;;8.10;3.70;;;;;;;10.56;79.57;96998.91;107997;1246;95829;-81
2023/06/28 02:22:55;;;;;;;7.70;3.50;;;;;;;10.58;79.60;96994.55;108033;1238;95887;-81
2023/06/28 02:25:21;;;;;;;4.90;3.30;;;;;;;10.59;79.53;96994.91;108052;1240;96466;-83
2023/06/28 02:27:47;;;;;;;5.40;3.00;;;;;;;10.61;79.48;96994.69;108051;1238;99890;-82
2023/06/28 02:30:14;;;;;;;6.70;3.30;;;;;;;10.64;79.53;96997.84;107975;1237;95989;-83
2023/06/28 02:32:40;;;;;;;10.40;3.20;;;;;;;10.64;79.66;96993.39;107979;1237;95837;-83
2023/06/28 02:35:07;;;;;;;6.70;3.50;;;;;;;10.67;79.66;96997.52;108074;1248;96035;-83
2023/06/28 02:37:33;;;;;;;6.30;3.20;;;;;;;10.69;79.76;97003.70;107961;1235;99888;-80
2023/06/28 02:40:00;;;;;;;7.20;3.10;;;;;;;10.68;79.85;97004.16;107976;1246;95802;-82
2023/06/28 02:42:26;;;;;;;6.40;3.00;;;;;;;10.67;79.86;97002.79;108072;1248;96061;-80
2023/06/28 02:44:52;;;;;;;9.70;3.30;;;;;;;10.65;79.91;96998.77;108016;1234;95754;-80
2023/06/28 02:47:19;;;;;;;5.90;3.20;;;;;;;10.64;80.00;96998.50;107809;1239;101948;-83
2023/06/28 02:49:45;;;;;;;17.10;3.40;;;;;;;10.65;80.13;97001.56;111361;1234;93504;-81
2023/06/28 02:52:11;;;;;;;4.10;3.00;;;;;;;10.66;80.18;97005.63;111338;1234;93409;-80
2023/06/28 02:54:38;;;;;;;3.40;2.80;;;;;;;10.66;80.28;97007.78;111487;1234;93532;-81
2023/06/28 02:57:08;;;;;;;6.90;3.00;;;;;;;10.68;80.26;97007.15;111407;1234;100350;-82
2023/06/28 02:59:34;;;;;;;3.40;3.00;;;;;;;10.72;80.36;97006.51;111353;1233;98871;-83
2023/06/28 03:02:03;;;;;;;5.20;3.50;;;;;;;10.76;80.41;97005.54;111376;1234;93415;-81
2023/06/28 03:04:29;;;;;;;5.50;3.00;;;;;;;10.82;80.46;97004.98;111429;1234;93417;-84
2023/06/28 03:06:56;;;;;;;6.50;3.20;;;;;;;10.89;80.45;97006.49;111374;1234;93430;-81
2023/06/28 03:09:23;;;;;;;5.20;3.50;;;;;;;10.95;80.45;97005.98;111392;1234;93460;-82
2023/06/28 03:11:49;;;;;;;4.70;2.80;;;;;;;11.00;80.52;97005.42;111329;1234;93519;-81
2023/06/28 03:14:15;;;;;;;4.30;2.60;;;;;;;11.04;80.60;97007.30;111411;1234;93365;-82
2023/06/28 03:16:42;;;;;;;5.30;3.20;;;;;;;11.08;80.60;97004.06;111403;1235;100661;-83
2023/06/28 03:19:08;;;;;;;5.90;3.10;;;;;;;11.09;80.64;97004.71;111418;1234;93364;-81
2023/06/28 03:21:34;;;;;;;6.10;3.30;;;;;;;11.13;80.49;97001.37;111362;1234;93812;-84
2023/06/28 03:24:01;;;;;;;4.60;3.30;;;;;;;11.18;80.59;97003.98;111419;1234;93850;-83
2023/06/28 03:26:29;;;;;;;5.30;2.80;;;;;;;11.23;80.50;97001.20;111419;1234;100930;-83
2023/06/28 03:28:57;;;;;;;6.00;2.80;;;;;;;11.25;80.57;96993.80;111347;1235;93760;-82
2023/06/28 03:31:24;;;;;;;6.30;2.90;;;;;;;11.27;80.35;96990.41;111356;1234;93476;-83
2023/06/28 03:33:50;;;;;;;8.80;3.10;;;;;;;11.31;80.15;96992.79;111378;1234;93412;-83
2023/06/28 03:36:17;;;;;;;6.30;3.40;;;;;;;11.33;80.30;96993.56;111425;1237;93378;-82
2023/06/28 03:38:43;;;;;;;3.30;2.70;;;;;;;11.35;80.21;96994.05;111410;1234;93921;-81
2023/06/28 03:41:09;;;;;;;7.00;2.60;;;;;;;11.39;80.17;96998.92;111347;1233;99967;-81
2023/06/28 03:43:36;;;;;;;6.50;3.00;;;;;;;11.42;80.06;96998.60;111379;1234;94173;-81
2023/06/28 03:46:02;;;;;;;4.90;3.00;;;;;;;11.46;80.06;96998.79;111384;1234;94093;-82
2023/06/28 03:48:28;;;;;;;7.30;2.80;;;;;;;11.49;80.11;96995.42;111489;1233;94212;-81
2023/06/28 03:50:55;;;;;;;9.10;3.00;;;;;;;11.56;80.20;97001.51;111394;1234;100531;-84
2023/06/28 03:53:21;;;;;;;2.80;2.40;;;;;;;11.64;79.95;97007.80;111370;1234;94157;-81
2023/06/28 03:55:47;;;;;;;9.10;2.70;;;;;;;11.72;79.55;97005.06;111372;1234;94424;-82
2023/06/28 03:58:14;;;;;;;7.90;2.90;;;;;;;11.81;79.37;96999.17;111479;1237;94582;-81
2023/06/28 04:00:41;;;;;;;5.00;2.70;;;;;;;11.88;79.23;97000.06;111336;1234;99726;-83
2023/06/28 04:03:08;;;;;;;5.20;2.90;;;;;;;11.94;79.28;97000.23;111373;1233;94037;-82
2023/06/28 04:05:35;;;;;;;4.20;2.60;;;;;;;11.99;79.20;97000.78;111404;1233;94188;-83
2023/06/28 04:08:02;;;;;;;4.40;2.70;;;;;;;12.04;79.36;96998.94;111394;1234;94495;-81
2023/06/28 04:10:29;;;;;;;4.00;2.70;;;;;;;12.09;79.34;97001.38;111401;1234;94138;-82
2023/06/28 04:12:55;;;;;;;3.50;2.50;;;;;;;12.13;79.11;97003.20;111336;1234;94121;-82
2023/06/28 04:15:22;;;;;;;5.20;3.10;;;;;;;12.17;79.15;97002.41;111465;1234;94092;-81
2023/06/28 04:17:48;;;;;;;5.30;2.40;;;;;;;12.21;79.23;97002.19;111374;1237;101139;-81
2023/06/28 04:20:14;;;;;;;4.50;2.90;;;;;;;12.27;79.35;97001.09;111353;1234;94124;-82
2023/06/28 04:22:40;;;;;;;4.10;2.70;;;;;;;12.30;79.26;97000.58;111351;1234;94329;-84
2023/06/28 04:25:07;;;;;;;5.20;3.10;;;;;;;12.34;79.24;97000.38;111414;1233;94332;-81
2023/06/28 04:27:34;;;;;;;3.80;2.80;;;;;;;12.37;79.20;96999.13;111347;1234;101114;-81
2023/06/28 04:30:00;;;;;;;5.90;3.10;;;;;;;12.39;79.22;96998.64;111364;1233;94159;-81
2023/06/28 04:32:27;;;;;;;4.80;2.70;;;;;;;12.37;78.95;96994.30;111321;1234;94064;-82
2023/06/28 04:34:55;;;;;;;4.80;2.90;;;;;;;12.39;78.93;96993.66;111384;1234;94236;-81
2023/06/28 04:37:22;;;;;;;3.20;2.70;;;;;;;12.44;78.92;96995.56;111397;1233;102208;-84
2023/06/28 04:39:49;;;;;;;6.00;3.70;;;;;;;12.49;78.76;96992.40;111372;1234;94104;-81
2023/06/28 04:42:15;;;;;;;4.70;3.20;;;;;;;12.53;78.83;96997.48;111352;1234;94214;-84
2023/06/28 04:44:46;;;;;;;6.70;2.60;;;;;;;12.58;78.48;96997.57;111354;1234;94091;-84
2023/06/28 04:47:15;;;;;;;4.20;3.00;;;;;;;12.57;78.14;96998.05;111357;1234;94393;-81
2023/06/28 04:49:47;;;;;;;10.50;2.70;;;;;;;12.56;77.91;96999.11;111363;1233;102344;-81
2023/06/28 04:52:14;;;;;;;6.30;3.30;;;;;;;12.56;77.87;96999.71;111347;1233;100942;-82
2023/06/28 04:54:41;;;;;;;5.00;3.00;;;;;;;12.57;77.60;96996.42;111357;1234;99755;-81
2023/06/28 06:17:42;;;;;;;3.90;1.30;;;;;;;15.09;68.16;96978.73;105332;1268;95914;-80
2023/06/28 06:20:09;;;;;;;2.20;1.60;;;;;;;15.16;68.10;96981.83;106970;1252;100402;-81
2023/06/28 06:22:36;;;;;;;3.40;1.60;;;;;;;15.21;67.85;96982.50;106628;1254;95820;-81
2023/06/28 06:25:02;;;;;;;4.30;1.60;;;;;;;15.24;67.69;96984.11;107857;1248;95838;-81
2023/06/28 06:27:29;;;;;;;4.00;1.70;;;;;;;15.28;67.54;96983.58;107938;1242;95919;-82
2023/06/28 06:29:55;;;;;;;3.90;2.00;;;;;;;15.30;67.20;96983.50;107890;1242;96126;-81
2023/06/28 06:32:22;;;;;;;3.70;1.60;;;;;;;15.33;67.13;96986.20;107729;1248;96747;-83
2023/06/28 06:34:48;;;;;;;4.40;1.70;;;;;;;15.36;67.17;96983.45;107778;1239;95851;-80
2023/06/28 06:37:15;;;;;;;6.70;1.60;;;;;;;15.39;66.98;96981.48;107794;1241;95905;-83
2023/06/28 06:39:42;;;;;;;3.80;1.80;;;;;;;15.44;66.61;96982.38;107904;1248;95894;-81
2023/06/28 06:42:09;;;;;;;3.60;1.40;;;;;;;15.51;66.56;96980.33;107879;1239;96042;-82
2023/06/28 06:44:35;;;;;;;5.60;1.80;;;;;;;15.60;66.55;96981.13;107709;1247;96850;-81
2023/06/28 06:47:03;;;;;;;2.30;1.30;;;;;;;15.71;66.66;96976.48;107781;1241;97220;-83
2023/06/28 06:49:30;;;;;;;7.10;1.90;;;;;;;15.81;66.13;96970.11;107579;1242;96328;-81
2023/06/28 06:51:56;;;;;;;5.80;1.70;;;;;;;15.94;65.93;96966.94;107781;1245;96176;-80
2023/06/28 06:54:24;;;;;;;4.10;1.80;;;;;;;16.05;66.24;96966.30;107939;1251;95855;-81
2023/06/28 06:56:51;;;;;;;3.30;1.60;;;;;;;16.16;66.12;96963.14;107843;1239;99778;-81
2023/06/28 06:59:19;;;;;;;3.70;1.60;;;;;;;16.27;66.22;96964.89;107589;1239;95874;-81
2023/06/28 07:01:46;;;;;;;2.80;1.40;;;;;;;16.29;66.02;96965.95;107752;1251;100399;-81
2023/06/28 07:04:12;;;;;;;9.70;2.60;;;;;;;16.29;65.69;96963.05;107837;1248;95914;-84
2023/06/28 07:06:39;;;;;;;8.60;2.00;;;;;;;16.26;65.70;96967.48;107883;1239;96187;-85
2023/06/28 07:09:06;;;;;;;3.10;1.80;;;;;;;16.20;65.84;96962.91;108014;1248;116565;-84
2023/06/28 07:11:32;;;;;;;4.70;1.80;;;;;;;16.10;65.86;96969.99;107868;1244;98468;-85
2023/06/28 07:13:59;;;;;;;4.40;2.10;;;;;;;16.03;66.15;96974.02;107823;1236;95814;-85
2023/06/28 07:16:25;;;;;;;3.00;1.80;;;;;;;15.97;65.96;96972.95;107921;1248;95866;-83
2023/06/28 07:18:54;;;;;;;3.60;1.90;;;;;;;15.93;65.86;96968.99;107853;1241;96377;-83
2023/06/28 07:21:20;;;;;;;2.80;2.00;;;;;;;15.92;66.05;96967.25;107783;1242;98960;-82
2023/06/28 07:23:47;;;;;;;5.10;1.60;;;;;;;16.00;66.37;96964.71;107960;1239;96081;-82
2023/06/28 07:26:14;;;;;;;3.00;1.50;;;;;;;16.08;66.34;96966.21;107732;1251;95811;-82
2023/06/28 07:28:41;;;;;;;2.80;1.80;;;;;;;16.11;65.90;96979.85;107827;1242;96270;-79
2023/06/28 07:31:08;;;;;;;4.50;1.80;;;;;;;16.09;65.53;96988.99;107813;1236;96264;-81
2023/06/28 07:33:34;;;;;;;2.60;1.40;;;;;;;16.01;65.30;96989.52;107586;1246;95805;-81
2023/06/28 07:36:00;;;;;;;5.30;1.70;;;;;;;15.92;64.85;97010.47;107525;1241;95847;-84
2023/06/28 07:38:27;;;;;;;3.30;1.20;;;;;;;15.74;64.75;97012.05;107617;1243;95820;-85
2023/06/28 07:40:54;;;;;;;2.60;1.50;;;;;;;15.50;64.60;97003.13;107531;1248;96770;-87
2023/06/28 07:43:20;;;;;;;1.70;1.30;;;;;;;15.36;64.74;96995.48;107590;1242;95827;-84
2023/06/28 07:45:46;;;;;;;5.30;1.80;;;;;;;15.29;65.38;96992.29;107590;1241;96755;-82
2023/06/28 07:48:13;;;;;;;3.20;1.40;;;;;;;15.24;66.28;96992.97;107719;1241;95901;-83
2023/06/28 07:50:39;;;;;;;2.50;1.60;;;;;;;15.20;66.80;96988.27;107807;1240;95897;-82
2023/06/28 07:53:06;;;;;;;3.20;1.70;;;;;;;15.19;67.16;96983.67;107831;1241;95835;-83
2023/06/28 07:55:32;;;;;;;2.00;1.50;;;;;;;15.18;68.04;96982.02;107843;1239;96372;-83
2023/06/28 07:57:59;;;;;;;3.70;1.60;;;;;;;15.24;68.79;96985.25;107923;1241;97268;-83
2023/06/28 08:00:26;;;;;;;3.20;1.30;;;;;;;15.33;68.99;96986.69;107757;1242;95840;-83
2023/06/28 08:02:54;;;;;;;3.70;1.60;;;;;;;15.49;68.88;96986.58;107418;1245;95903;-82
2023/06/28 08:05:21;;;;;;;2.60;1.60;;;;;;;15.65;68.23;96987.02;107857;1249;96657;-83
2023/06/28 08:07:48;;;;;;;3.20;1.70;;;;;;;15.86;68.48;96982.75;107904;1242;95829;-84
2023/06/28 08:10:15;;;;;;;3.00;1.90;;;;;;;16.28;68.42;96985.36;107877;1251;96835;-84
2023/06/28 08:12:41;;;;;;;2.90;1.80;;;;;;;16.73;68.05;96978.48;107543;1252;96307;-82
2023/06/28 08:15:08;;;;;;;2.80;1.90;;;;;;;17.07;67.53;96978.29;107438;1242;96023;-82
2023/06/28 08:17:35;;;;;;;2.90;1.70;;;;;;;17.25;66.82;96978.14;107472;1252;95972;-82
2023/06/28 08:20:01;;;;;;;3.10;2.00;;;;;;;17.37;66.28;96981.59;107517;1253;95945;-82
2023/06/28 08:22:28;;;;;;;2.50;1.60;;;;;;;17.46;65.79;96978.25;107183;1242;95894;-81
2023/06/28 08:24:54;;;;;;;3.50;1.90;;;;;;;17.68;65.96;96976.63;107107;1245;96750;-81
2023/06/28 08:27:20;;;;;;;3.40;1.90;;;;;;;17.94;65.73;96972.14;107135;1254;96092;-81
2023/06/28 08:29:47;;;;;;;4.00;1.90;;;;;;;18.09;64.82;96968.48;107268;1245;96022;-84
2023/06/28 08:32:13;;;;;;;2.80;1.40;;;;;;;18.04;64.24;96969.92;107129;1248;97104;-81
2023/06/28 08:34:42;;;;;;;3.20;1.70;;;;;;;18.04;63.93;96965.88;107235;1255;96837;-81
2023/06/28 08:37:08;;;;;;;5.40;1.90;;;;;;;18.14;63.83;96963.39;107233;1246;96175;-83
2023/06/28 08:39:36;;;;;;;5.70;1.90;;;;;;;18.27;63.59;96964.90;107265;1241;97083;-84
2023/06/28 08:42:03;;;;;;;3.90;2.00;;;;;;;18.50;63.68;96962.20;107289;1248;108283;-83
2023/06/28 08:44:32;;;;;;;3.30;1.60;;;;;;;18.92;62.89;96959.20;107366;1247;96306;-83
2023/06/28 08:47:03;;;;;;;3.20;1.80;;;;;;;19.08;61.91;96957.25;107504;1252;95949;-83
2023/06/28 08:49:31;;;;;;;3.80;1.70;;;;;;;19.08;61.17;96952.00;107446;1244;96824;-84
2023/06/28 08:51:57;;;;;;;5.30;1.60;;;;;;;19.15;60.76;96945.71;107464;1244;99814;-83
2023/06/28 08:54:28;;;;;;;2.20;1.60;;;;;;;19.20;60.54;96947.02;107767;1243;95905;-83
2023/06/28 08:56:59;;;;;;;5.20;3.80;;;;;;;19.17;60.29;96943.52;107588;1241;100510;-82
2023/06/28 08:59:26;;;;;;;12.80;7.10;;;;;;;19.08;59.96;96938.77;107997;1240;95735;-83
2023/06/28 09:01:55;;;;;;;3.50;1.70;;;;;;;19.03;59.63;96939.39;107649;1244;95941;-82
2023/06/28 09:04:29;;;;;;;2.00;1.70;;;;;;;19.14;59.67;96940.24;107567;1251;99677;-82
2023/06/28 09:06:56;;;;;;;2.20;1.50;;;;;;;19.55;59.53;96941.88;107698;1241;101602;-83
2023/06/28 09:09:24;;;;;;;4.70;2.00;;;;;;;19.99;59.16;96936.48;107805;1242;95996;-85
2023/06/28 09:11:50;;;;;;;4.00;1.90;;;;;;;20.46;58.70;96929.06;107496;1248;95892;-83
2023/06/28 09:14:17;;;;;;;1.90;1.50;;;;;;;20.77;58.28;96923.88;107854;1248;97078;-81
2023/06/28 09:16:43;;;;;;;2.90;2.00;;;;;;;21.09;57.48;96922.92;107865;1247;95812;-87
2023/06/28 09:19:09;;;;;;;2.90;1.40;;;;;;;21.47;57.24;96925.38;107860;1245;96746;-85
2023/06/28 09:21:36;;;;;;;2.30;1.40;;;;;;;21.88;56.66;96927.17;107801;1249;95834;-83
2023/06/28 09:24:02;;;;;;;1.80;1.40;;;;;;;22.06;55.80;96921.85;107869;1242;95822;-83
2023/06/28 09:26:31;;;;;;;4.60;1.50;;;;;;;21.98;55.47;96920.29;107918;1245;95832;-84
2023/06/28 09:29:08;;;;;;;2.30;1.50;;;;;;;21.78;54.47;96921.91;107856;1241;96737;-81
2023/06/28 09:31:44;;;;;;;2.10;1.30;;;;;;;21.51;54.16;96923.31;107795;1251;100348;-83
2023/06/28 09:34:10;;;;;;;3.50;1.60;;;;;;;21.20;53.71;96927.04;107876;1241;95812;-80
2023/06/28 09:36:37;;;;;;;3.30;1.90;;;;;;;20.95;53.75;96920.46;107804;1241;95909;-83
2023/06/28 09:39:05;;;;;;;2.60;1.40;;;;;;;21.15;53.98;96920.17;107915;1240;96295;-83
2023/06/28 09:41:43;;;;;;;3.70;1.40;;;;;;;21.49;53.16;96914.42;107950;1241;96772;-83
2023/06/28 09:44:12;;;;;;;4.20;1.50;;;;;;;21.45;52.38;96910.73;107796;1251;98810;-80
2023/06/28 09:46:46;;;;;;;3.80;1.50;;;;;;;21.18;52.22;96907.45;107764;1241;96759;-82
2023/06/28 09:49:24;;;;;;;4.70;1.90;;;;;;;20.86;51.83;96902.90;107384;1244;96850;-82
2023/06/28 09:52:02;;;;;;;4.30;1.60;;;;;;;20.83;51.78;96897.88;107307;1254;99329;-80
2023/06/28 09:54:44;;;;;;;3.50;1.60;;;;;;;20.98;52.01;96890.55;107090;1248;99305;-80
2023/06/28 09:57:11;;;;;;;3.40;1.30;;;;;;;20.99;51.75;96886.31;107021;1247;100879;-82
2023/06/28 09:59:38;;;;;;;3.50;1.50;;;;;;;20.90;52.04;96884.98;107208;1249;96950;-84
2023/06/28 10:02:08;;;;;;;3.30;1.70;;;;;;;21.00;52.04;96881.84;107159;1256;96888;-81
2023/06/28 10:04:37;;;;;;;2.50;1.40;;;;;;;21.32;51.63;96875.36;107053;1256;103548;-84
2023/06/28 10:07:06;;;;;;;4.90;1.50;;;;;;;21.74;50.97;96876.76;106920;1258;102003;-83
2023/06/28 10:09:40;;;;;;;3.90;1.70;;;;;;;22.21;50.34;96865.04;107089;1248;98698;-84
2023/06/28 10:12:13;;;;;;;4.50;1.60;;;;;;;22.66;50.22;96859.86;106927;1251;97798;-82
2023/06/28 10:14:46;;;;;;;5.20;1.60;;;;;;;23.00;49.17;96864.77;107219;1248;97142;-82
2023/06/28 10:17:14;;;;;;;4.50;1.60;;;;;;;23.20;47.51;96856.17;107095;1255;101137;-80
2023/06/28 10:19:40;;;;;;;3.20;1.40;;;;;;;23.28;47.03;96854.75;107093;1248;96631;-81
2023/06/28 10:22:07;;;;;;;1.80;1.10;;;;;;;23.33;46.13;96855.63;107302;1255;97002;-82
2023/06/28 10:24:36;;;;;;;3.90;1.50;;;;;;;23.30;45.57;96849.21;107379;1245;97764;-84
2023/06/28 10:27:04;;;;;;;2.50;1.20;;;;;;;23.38;45.40;96847.23;107533;1239;99455;-81
2023/06/28 10:29:31;;;;;;;2.90;1.20;;;;;;;23.16;44.93;96847.39;107453;1245;100803;-84
2023/06/28 10:31:57;;;;;;;3.40;1.50;;;;;;;22.66;44.89;96845.66;107574;1244;96939;-82
2023/06/28 10:34:25;;;;;;;5.10;1.60;;;;;;;22.21;45.44;96845.08;107501;1250;96545;-81
2023/06/28 10:36:51;;;;;;;4.20;1.50;;;;;;;21.84;45.64;96846.61;107854;1242;97508;-82
2023/06/28 10:39:18;;;;;;;6.30;1.90;;;;;;;21.63;46.03;96853.02;107824;1248;96756;-83
2023/06/28 10:41:45;;;;;;;3.30;1.70;;;;;;;21.54;46.44;96856.98;107989;1241;96561;-82
2023/06/28 10:44:11;;;;;;;3.50;1.60;;;;;;;21.48;46.82;96853.59;107858;1240;98509;-83
2023/06/28 10:46:38;;;;;;;8.20;2.00;;;;;;;21.52;46.87;96850.61;107876;1240;96621;-82
2023/06/28 10:49:05;;;;;;;2.60;1.20;;;;;;;21.64;46.39;96848.70;107985;1240;96652;-85
2023/06/28 10:51:33;;;;;;;2.70;1.30;;;;;;;21.69;46.02;96846.89;108299;1241;96544;-82
2023/06/28 10:54:09;;;;;;;3.80;1.50;;;;;;;21.58;45.49;96840.00;109582;1238;96529;-82
2023/06/28 10:56:44;;;;;;;2.80;1.40;;;;;;;21.48;45.58;96843.20;107837;1240;99007;-81
2023/06/28 10:59:10;;;;;;;5.20;1.30;;;;;;;21.66;45.98;96849.67;107857;1241;97421;-82
2023/06/28 11:01:49;;;;;;;4.80;1.40;;;;;;;21.93;45.26;96856.83;107889;1241;97448;-84
2023/06/28 11:04:16;;;;;;;2.70;1.40;;;;;;;22.27;45.14;96848.41;107897;1249;102945;-82
2023/06/28 11:06:42;;;;;;;3.70;1.40;;;;;;;22.62;45.24;96850.63;108346;1240;96517;-81
2023/06/28 11:09:14;;;;;;;3.50;1.50;;;;;;;22.96;45.10;96852.96;108004;1240;96635;-82
2023/06/28 11:11:53;;;;;;;1.20;1.10;;;;;;;23.21;44.84;96851.92;108089;1241;97649;-82
2023/06/28 11:14:25;;;;;;;2.10;1.30;;;;;;;23.41;44.41;96856.24;108108;1239;97123;-82
2023/06/28 11:17:13;;;;;;;2.20;1.20;;;;;;;23.66;43.68;96858.06;108058;1238;102976;-84
2023/06/28 11:19:41;;;;;;;4.40;1.80;;;;;;;23.76;43.47;96856.63;108114;1241;99933;-82
2023/06/28 11:22:08;;;;;;;5.20;1.50;;;;;;;23.50;43.24;96858.70;109272;1238;100398;-84
2023/06/28 11:24:37;;;;;;;2.50;1.10;;;;;;;23.25;43.11;96862.48;107716;1242;98202;-81
2023/06/28 11:27:10;;;;;;;3.80;1.20;;;;;;;22.83;42.82;96871.72;107647;1242;96956;-85
2023/06/28 11:30:01;;;;;;;3.00;1.10;;;;;;;22.34;43.07;96892.28;107756;1248;100735;-82
2023/06/28 11:32:31;;;;;;;2.90;1.30;;;;;;;21.86;43.21;96922.79;107269;1246;100699;-83
2023/06/28 11:34:59;;;;;;;3.80;1.30;;;;;;;20.87;43.70;96944.48;106925;1252;101342;-82
2023/06/28 11:37:27;;;;;;;2.80;1.40;;;;;;;19.53;45.63;96947.38;107245;1241;98356;-84
2023/06/28 11:39:53;;;;;;;2.60;1.60;;;;;;;18.52;48.22;96959.84;107279;1244;96699;-85
2023/06/28 11:42:20;;;;;;;3.50;2.00;;;;;;;18.01;49.70;96973.30;107245;1244;97677;-83
2023/06/28 11:44:48;;;;;;;3.50;1.60;;;;;;;17.78;50.94;96971.42;107097;1239;97052;-86
2023/06/28 11:47:19;;;;;;;3.30;1.30;;;;;;;17.56;51.87;96966.25;107370;1245;96740;-84
2023/06/28 11:49:49;;;;;;;2.60;1.50;;;;;;;17.47;53.12;96959.11;107465;1242;97831;-84
2023/06/28 11:52:20;;;;;;;3.20;1.60;;;;;;;17.37;53.82;96959.88;107421;1252;97209;-86
2023/06/28 11:54:47;;;;;;;2.80;1.40;;;;;;;17.33;53.90;96963.52;107354;1248;101216;-84
2023/06/28 11:57:13;;;;;;;1.90;1.00;;;;;;;17.41;53.98;96958.91;107674;1245;96776;-83
2023/06/28 11:59:44;;;;;;;1.80;1.20;;;;;;;17.42;54.23;96952.20;107690;1241;96989;-83
2023/06/28 12:02:11;;;;;;;2.70;1.20;;;;;;;17.47;54.24;96948.74;107733;1246;96562;-82
2023/06/28 12:04:39;;;;;;;1.20;1.00;;;;;;;17.44;55.18;96940.04;107395;1251;97548;-83
2023/06/28 12:07:06;;;;;;;2.30;1.10;;;;;;;17.45;55.88;96941.85;107525;1251;102129;-85
2023/06/28 12:09:35;;;;;;;3.40;1.00;;;;;;;17.45;56.12;96938.64;107449;1238;96614;-82
2023/06/28 12:12:07;;;;;;;2.40;1.30;;;;;;;17.67;56.52;96936.83;107483;1251;100699;-82
2023/06/28 12:14:52;;;;;;;1.90;1.10;;;;;;;18.12;56.39;96925.69;107335;1244;97314;-84
2023/06/28 12:17:18;;;;;;;4.10;1.50;;;;;;;18.23;55.06;96921.02;107320;1244;97086;-85
2023/06/28 12:19:46;;;;;;;2.70;1.50;;;;;;;18.33;55.53;96918.90;107342;1248;97061;-84
2023/06/28 12:22:12;;;;;;;2.40;1.20;;;;;;;18.64;56.29;96912.35;107463;1245;97086;-83
2023/06/28 12:24:38;;;;;;;4.40;1.70;;;;;;;19.01;56.09;96910.34;107384;1241;97868;-81
2023/06/28 12:27:07;;;;;;;1.70;1.30;;;;;;;19.34;55.79;96908.56;107347;1255;96546;-81
2023/06/28 12:29:36;;;;;;;3.20;1.60;;;;;;;19.69;55.41;96900.59;107361;1243;102596;-82
2023/06/28 12:32:04;;;;;;;5.10;1.50;;;;;;;20.01;54.64;96901.67;107322;1255;101850;-80
2023/06/28 12:34:34;;;;;;;2.90;1.40;;;;;;;20.32;53.97;96901.20;107494;1251;100399;-80
2023/06/28 12:37:04;;;;;;;2.60;1.20;;;;;;;20.57;54.17;96895.91;107024;1250;97452;-80
2023/06/28 12:39:36;;;;;;;3.40;1.70;;;;;;;20.96;53.88;96891.94;107228;1255;97071;-81
2023/06/28 12:42:04;;;;;;;4.00;2.10;;;;;;;21.34;53.06;96894.73;107632;1242;100801;-83
2023/06/28 12:44:32;;;;;;;2.70;1.60;;;;;;;21.47;51.64;96899.96;107535;1244;102273;-83
2023/06/28 12:46:59;;;;;;;4.40;1.50;;;;;;;21.51;51.13;96892.27;107563;1241;99318;-81